Time;durP1;ratioP1;P1;durP2;ratioP2;P2;SDS_P1;SDS_P2;PMS_P1;PMS_P2;Temp;Humidity;BMP_temperature;BMP_pressure;BME280_temperature;BME280_humidity;BME280_pressure;Samples;Min_cycle;Max_cycle;Signal;HPM_P1;HPM_P2
2022/04/01 00:01:03;;;;;;;17.00;5.63;;;2.40;99.90;;;;;;4980974;28;20203;-52
2022/04/01 00:03:31;;;;;;;8.48;5.85;;;2.50;99.90;;;;;;4980583;28;20215;-49
2022/04/01 00:05:58;;;;;;;7.03;5.40;;;2.50;99.90;;;;;;4984719;28;20562;-52
2022/04/01 00:08:29;;;;;;;9.50;6.35;;;2.40;99.90;;;;;;4987504;28;20231;-51
2022/04/01 00:10:56;;;;;;;6.43;5.53;;;2.50;99.90;;;;;;4986641;28;20263;-55
2022/04/01 00:13:23;;;;;;;6.38;5.28;;;2.40;99.90;;;;;;4982367;28;20249;-49
2022/04/01 00:15:51;;;;;;;9.60;6.05;;;2.50;99.90;;;;;;4981093;28;20218;-49
2022/04/01 00:18:18;;;;;;;5.75;5.25;;;2.50;99.90;;;;;;4980184;28;20280;-51
2022/04/01 00:20:48;;;;;;;5.47;4.90;;;2.60;99.90;;;;;;4980763;28;20375;-52
2022/04/01 00:23:18;;;;;;;5.70;4.97;;;2.50;99.90;;;;;;4980327;28;20521;-54
2022/04/01 00:25:45;;;;;;;5.88;4.68;;;2.50;99.90;;;;;;4980600;28;20496;-49
2022/04/01 00:28:13;;;;;;;7.43;4.75;;;2.60;99.90;;;;;;4980566;28;20249;-52
2022/04/01 00:30:41;;;;;;;7.07;3.38;;;2.50;99.90;;;;;;4981403;28;20206;-49
2022/04/01 00:33:16;;;;;;;6.50;5.07;;;2.50;99.90;;;;;;4984494;28;20397;-49
2022/04/01 00:35:44;;;;;;;8.70;4.93;;;2.40;99.90;;;;;;4983858;28;20341;-48
2022/04/01 00:38:15;;;;;;;10.32;4.45;;;2.30;99.90;;;;;;4983877;28;20257;-51
2022/04/01 00:40:42;;;;;;;6.32;4.50;;;2.20;99.90;;;;;;4983997;28;20545;-49
2022/04/01 00:43:10;;;;;;;5.03;3.72;;;2.30;99.90;;;;;;4984412;28;20367;-47
2022/04/01 00:45:38;;;;;;;12.60;5.95;;;2.20;99.90;;;;;;4983788;28;20246;-51
2022/04/01 00:48:08;;;;;;;5.72;5.20;;;2.00;99.90;;;;;;4984479;28;20265;-51
2022/04/01 00:50:36;;;;;;;9.75;5.95;;;2.00;99.90;;;;;;4986420;28;20273;-52
2022/04/01 00:53:04;;;;;;;5.80;4.60;;;2.00;99.90;;;;;;4984646;28;20213;-50
2022/04/01 00:55:31;;;;;;;6.07;5.47;;;1.90;99.90;;;;;;4984012;28;20269;-48
2022/04/01 00:57:58;;;;;;;9.10;5.07;;;1.70;99.90;;;;;;4983782;28;20480;-48
2022/04/01 01:00:27;;;;;;;8.27;5.65;;;1.80;99.90;;;;;;4983596;28;20254;-49
2022/04/01 01:02:55;;;;;;;7.60;5.65;;;1.60;99.90;;;;;;4983762;28;20207;-50
2022/04/01 01:05:23;;;;;;;10.38;5.63;;;1.70;99.90;;;;;;4982947;28;20237;-49
2022/04/01 01:07:51;;;;;;;7.05;6.35;;;1.70;99.90;;;;;;4983386;28;20242;-49
2022/04/01 01:10:19;;;;;;;8.80;6.43;;;1.60;99.90;;;;;;4983196;28;20202;-47
2022/04/01 01:12:46;;;;;;;7.43;5.53;;;1.50;99.90;;;;;;4983308;28;20378;-52
2022/04/01 01:15:18;;;;;;;7.63;5.85;;;1.40;99.90;;;;;;4983245;28;20202;-48
2022/04/01 01:17:46;;;;;;;7.07;5.03;;;1.50;99.90;;;;;;4982346;28;20233;-48
2022/04/01 01:20:17;;;;;;;6.55;5.70;;;1.50;99.90;;;;;;4981842;28;20448;-53
2022/04/01 01:22:49;;;;;;;10.57;5.75;;;1.50;99.90;;;;;;4983501;28;20226;-50
2022/04/01 01:25:16;;;;;;;8.65;6.72;;;1.50;99.90;;;;;;4983059;28;20418;-51
2022/04/01 01:27:43;;;;;;;7.53;5.68;;;1.40;99.90;;;;;;4982996;28;20229;-51
2022/04/01 01:30:11;;;;;;;10.30;6.32;;;1.30;99.90;;;;;;4983242;28;20441;-47
2022/04/01 01:32:39;;;;;;;6.70;5.60;;;1.30;99.90;;;;;;4982741;28;20270;-48
2022/04/01 01:35:10;;;;;;;9.20;8.25;;;1.40;99.90;;;;;;4983068;28;20203;-51
2022/04/01 01:37:38;;;;;;;7.60;6.20;;;1.30;99.90;;;;;;4982951;28;20584;-52
2022/04/01 01:40:08;;;;;;;6.93;6.18;;;1.30;99.90;;;;;;4983027;28;20237;-49
2022/04/01 01:42:35;;;;;;;11.40;6.53;;;1.30;99.90;;;;;;4981934;28;20238;-50
2022/04/01 01:45:05;;;;;;;7.30;6.60;;;1.30;99.90;;;;;;4983176;28;20262;-48
2022/04/01 01:47:32;;;;;;;8.45;6.97;;;1.20;99.90;;;;;;4984288;28;20226;-48
2022/04/01 01:55:32;;;;;;;9.63;6.35;;;1.20;99.90;;;;;;4982283;28;20224;-48
2022/04/01 01:58:01;;;;;;;10.60;6.55;;;1.20;99.90;;;;;;4982980;28;20599;-48
2022/04/01 02:00:29;;;;;;;9.45;6.47;;;1.10;99.90;;;;;;4982562;28;20198;-50
2022/04/01 02:02:57;;;;;;;8.13;6.53;;;1.10;99.90;;;;;;4982928;28;20592;-50
2022/04/01 02:05:24;;;;;;;8.45;6.00;;;1.10;99.90;;;;;;4982261;28;20269;-51
2022/04/01 02:07:53;;;;;;;7.90;6.75;;;1.00;99.90;;;;;;4982801;28;20269;-49
2022/04/01 02:10:20;;;;;;;10.32;5.88;;;1.00;99.90;;;;;;4982428;28;20209;-54
2022/04/01 02:12:48;;;;;;;8.18;6.78;;;1.00;99.90;;;;;;4982296;28;20465;-50
2022/04/01 02:15:15;;;;;;;7.43;5.80;;;1.00;99.90;;;;;;4982467;28;20445;-50
2022/04/01 02:17:43;;;;;;;8.45;7.20;;;1.00;99.90;;;;;;4982649;28;20223;-51
2022/04/01 02:20:10;;;;;;;9.65;7.45;;;1.00;99.90;;;;;;4982485;28;20210;-49
2022/04/01 02:22:39;;;;;;;9.40;8.40;;;0.90;99.90;;;;;;4982046;28;20544;-50
2022/04/01 02:25:08;;;;;;;8.93;8.00;;;0.90;99.90;;;;;;4982337;28;20226;-50
2022/04/01 02:27:35;;;;;;;8.38;6.85;;;1.00;99.90;;;;;;4982908;28;20257;-49
2022/04/01 02:30:10;;;;;;;6.75;5.80;;;1.00;99.90;;;;;;4982352;28;20303;-47
2022/04/01 02:32:41;;;;;;;6.97;6.25;;;1.00;99.90;;;;;;4982401;28;20212;-50
2022/04/01 02:35:10;;;;;;;10.38;6.47;;;0.90;99.90;;;;;;4981950;28;20237;-49
2022/04/01 02:37:39;;;;;;;9.32;6.40;;;0.90;99.90;;;;;;4982259;28;20426;-53
2022/04/01 02:40:08;;;;;;;9.07;6.20;;;0.80;99.90;;;;;;4981912;28;20374;-49
2022/04/01 02:42:36;;;;;;;8.02;6.70;;;0.90;99.90;;;;;;4982170;28;20335;-47
2022/04/01 02:45:04;;;;;;;11.88;6.68;;;0.90;99.90;;;;;;4980662;28;20222;-51
2022/04/01 02:47:31;;;;;;;9.25;6.97;;;0.90;99.90;;;;;;4981971;28;20237;-51
2022/04/01 02:50:00;;;;;;;9.73;6.60;;;0.80;99.90;;;;;;4981879;28;20241;-51
2022/04/01 02:52:27;;;;;;;7.15;6.05;;;0.80;99.90;;;;;;4981375;28;20199;-48
2022/04/01 02:54:55;;;;;;;12.20;7.43;;;0.80;99.90;;;;;;4981539;28;20249;-49
2022/04/01 02:57:22;;;;;;;8.25;6.38;;;0.90;99.90;;;;;;4981109;28;20269;-48
2022/04/01 02:59:49;;;;;;;8.43;5.57;;;0.90;99.90;;;;;;4982117;28;20241;-49
2022/04/01 03:02:17;;;;;;;8.77;5.65;;;0.80;99.90;;;;;;4980890;28;20256;-54
2022/04/01 03:04:45;;;;;;;12.68;7.30;;;0.90;99.90;;;;;;4981613;28;20563;-50
2022/04/01 03:07:13;;;;;;;9.15;6.40;;;0.70;99.90;;;;;;4980794;28;20222;-52
2022/04/01 03:09:41;;;;;;;10.30;6.55;;;0.70;99.90;;;;;;4981429;28;20198;-52
2022/04/01 03:12:08;;;;;;;8.02;6.55;;;0.70;99.90;;;;;;4978851;28;20335;-50
2022/04/01 03:14:36;;;;;;;10.20;6.60;;;0.70;99.90;;;;;;4975669;28;20197;-53
2022/04/01 03:17:03;;;;;;;8.70;6.20;;;0.60;99.90;;;;;;4981345;28;20234;-52
2022/04/01 03:19:30;;;;;;;7.55;5.95;;;0.60;99.90;;;;;;4979933;28;20210;-49
2022/04/01 03:21:57;;;;;;;12.75;7.53;;;0.60;99.90;;;;;;4981380;28;20214;-49
2022/04/01 03:24:25;;;;;;;11.52;10.25;;;0.60;99.90;;;;;;4981025;28;20449;-46
2022/04/01 03:26:52;;;;;;;9.38;7.03;;;0.50;99.90;;;;;;4981966;28;20246;-55
2022/04/01 03:29:20;;;;;;;11.73;9.90;;;0.50;99.90;;;;;;4980756;28;20245;-52
2022/04/01 03:31:47;;;;;;;14.52;9.13;;;0.50;99.90;;;;;;4981029;28;20202;-49
2022/04/01 03:34:15;;;;;;;10.40;8.38;;;0.60;99.90;;;;;;4980935;28;20433;-50
2022/04/01 03:36:42;;;;;;;12.75;7.75;;;0.50;99.90;;;;;;4980894;28;20226;-52
2022/04/01 03:39:10;;;;;;;9.15;7.03;;;0.60;99.90;;;;;;4981266;28;20327;-49
2022/04/01 03:41:37;;;;;;;9.75;6.72;;;0.40;99.90;;;;;;4986677;28;20198;-51
2022/04/01 03:44:05;;;;;;;8.13;6.30;;;0.50;99.90;;;;;;4984648;28;20233;-49
2022/04/01 03:46:49;;;;;;;7.85;6.90;;;0.40;99.90;;;;;;4980794;28;20222;-51
2022/04/01 03:49:22;;;;;;;11.60;8.77;;;0.40;99.90;;;;;;4981038;28;20198;-48
2022/04/01 03:51:50;;;;;;;15.93;9.65;;;0.40;99.90;;;;;;4980980;28;20272;-48
2022/04/01 03:54:22;;;;;;;13.65;7.82;;;0.50;99.90;;;;;;4980401;28;20202;-49
2022/04/01 03:56:58;;;;;;;14.00;8.70;;;0.50;99.90;;;;;;4980863;28;20533;-51
2022/04/01 03:59:40;;;;;;;18.40;11.30;;;0.50;99.90;;;;;;4980624;28;20214;-50
2022/04/01 04:02:14;;;;;;;17.13;12.23;;;0.40;99.90;;;;;;4980470;28;20401;-47
2022/04/01 04:04:43;;;;;;;14.80;10.13;;;0.40;99.90;;;;;;4979872;28;20225;-53
2022/04/01 04:07:11;;;;;;;12.25;10.85;;;0.40;99.90;;;;;;4983660;28;20225;-47
2022/04/01 04:09:40;;;;;;;15.23;11.85;;;0.40;99.90;;;;;;4984458;28;20378;-50
2022/04/01 04:12:12;;;;;;;19.20;10.65;;;0.30;99.90;;;;;;4984574;28;20200;-47
2022/04/01 04:14:41;;;;;;;13.45;8.68;;;0.30;99.90;;;;;;4984188;28;20256;-51
2022/04/01 04:17:16;;;;;;;10.05;8.07;;;0.30;99.90;;;;;;4984084;28;20222;-51
2022/04/01 04:19:50;;;;;;;12.95;9.20;;;0.30;99.90;;;;;;4984126;28;20206;-51
2022/04/01 04:22:25;;;;;;;10.23;9.15;;;0.30;99.90;;;;;;4975595;28;20202;-48
2022/04/01 04:24:58;;;;;;;17.42;8.48;;;0.30;99.90;;;;;;4980499;28;20233;-51
2022/04/01 04:27:29;;;;;;;8.90;7.00;;;0.30;99.90;;;;;;4983561;28;20233;-51
2022/04/01 04:30:10;;;;;;;9.00;7.60;;;0.30;99.90;;;;;;4982287;28;20277;-48
2022/04/01 04:32:55;;;;;;;13.93;9.20;;;0.30;99.90;;;;;;4980529;28;20198;-50
2022/04/01 04:35:25;;;;;;;13.00;6.90;;;0.30;99.90;;;;;;4982017;28;20202;-48
2022/04/01 04:37:56;;;;;;;8.85;7.47;;;0.30;99.90;;;;;;4983469;28;20222;-51
2022/04/01 04:40:25;;;;;;;11.48;9.88;;;0.30;99.90;;;;;;4983714;28;20198;-48
2022/04/01 04:42:53;;;;;;;12.43;9.85;;;0.30;99.90;;;;;;4984305;28;20210;-51
2022/04/01 04:45:22;;;;;;;11.18;8.35;;;0.30;99.90;;;;;;4983179;28;20330;-50
2022/04/01 04:47:50;;;;;;;12.48;9.80;;;0.30;99.90;;;;;;4980582;28;20297;-53
2022/04/01 04:50:20;;;;;;;11.07;8.32;;;0.20;99.90;;;;;;4984674;28;20201;-49
2022/04/01 04:55:42;;;;;;;10.88;8.05;;;0.30;99.90;;;;;;4986986;28;20266;-51
2022/04/01 04:58:12;;;;;;;10.05;8.75;;;0.40;99.90;;;;;;4984002;28;20262;-50
2022/04/01 05:00:45;;;;;;;10.02;7.78;;;0.20;99.90;;;;;;4986903;28;20473;-51
2022/04/01 05:03:29;;;;;;;10.38;7.95;;;0.30;99.90;;;;;;4988995;28;20210;-53
2022/04/01 05:05:58;;;;;;;11.65;9.48;;;0.30;99.90;;;;;;4991071;28;20234;-54
2022/04/01 05:08:53;;;;;;;12.98;8.85;;;0.30;99.90;;;;;;4988809;28;20226;-51
2022/04/01 05:11:47;;;;;;;14.77;9.38;;;0.30;99.90;;;;;;4982935;28;20202;-49
2022/04/01 05:14:34;;;;;;;10.13;8.57;;;0.30;99.90;;;;;;4981664;28;20493;-49
2022/04/01 05:17:04;;;;;;;11.48;9.70;;;0.30;99.90;;;;;;4980488;28;20619;-51
2022/04/01 05:19:32;;;;;;;13.77;11.48;;;0.20;99.90;;;;;;4982997;28;20412;-48
2022/04/01 05:22:07;;;;;;;14.90;9.77;;;0.20;99.90;;;;;;4978603;28;20221;-52
2022/04/01 05:24:39;;;;;;;11.63;10.30;;;0.30;99.90;;;;;;4974429;28;20226;-52
2022/04/01 05:27:21;;;;;;;15.32;10.55;;;0.30;99.90;;;;;;4979089;28;20346;-50
2022/04/01 05:30:12;;;;;;;11.10;9.63;;;0.30;99.90;;;;;;4973478;28;20233;-49
2022/04/01 05:32:50;;;;;;;14.60;8.98;;;0.20;99.90;;;;;;4966834;28;20222;-48
2022/04/01 05:35:20;;;;;;;11.00;9.23;;;0.30;99.90;;;;;;4967655;28;20202;-49
2022/04/01 05:37:49;;;;;;;12.10;10.25;;;0.30;99.90;;;;;;4981600;28;20564;-50
2022/04/01 05:40:19;;;;;;;12.00;9.23;;;0.30;99.90;;;;;;4979025;28;20198;-50
2022/04/01 05:42:52;;;;;;;10.95;9.40;;;0.40;99.90;;;;;;4965341;28;20352;-48
2022/04/01 05:45:20;;;;;;;11.50;10.02;;;0.30;99.90;;;;;;4982097;28;20222;-48
2022/04/01 05:47:48;;;;;;;11.88;10.63;;;0.30;99.90;;;;;;4982108;28;20222;-50
2022/04/01 05:50:20;;;;;;;13.35;11.80;;;0.30;99.90;;;;;;4973926;28;20198;-51
2022/04/01 05:52:50;;;;;;;16.33;11.25;;;0.40;99.90;;;;;;4982424;28;20658;-50
2022/04/01 05:55:22;;;;;;;12.43;10.55;;;0.40;99.90;;;;;;4962753;28;20211;-49
2022/04/01 05:57:53;;;;;;;16.40;10.95;;;0.50;99.90;;;;;;4962761;28;20227;-51
2022/04/01 06:00:21;;;;;;;14.55;12.57;;;0.50;99.90;;;;;;4967104;28;20269;-50
2022/04/01 06:03:17;;;;;;;13.63;10.80;;;0.40;99.90;;;;;;4980110;28;20258;-51
2022/04/01 06:05:54;;;;;;;13.60;10.95;;;0.40;99.90;;;;;;4976914;28;20230;-50
2022/04/01 06:08:58;;;;;;;12.45;10.90;;;0.40;99.90;;;;;;4974789;28;20606;-50
2022/04/01 06:11:49;;;;;;;13.40;12.02;;;0.30;99.90;;;;;;4982403;28;20198;-49
2022/04/01 06:14:44;;;;;;;13.20;11.70;;;0.30;99.90;;;;;;4981682;28;20206;-56
2022/04/01 06:17:20;;;;;;;19.23;12.70;;;0.30;99.90;;;;;;4981705;28;20343;-53
2022/04/01 06:19:51;;;;;;;25.58;14.13;;;0.40;99.90;;;;;;4982054;28;20204;-50
2022/04/01 06:22:20;;;;;;;14.57;13.07;;;0.40;99.90;;;;;;4981852;28;20236;-51
2022/04/01 06:25:12;;;;;;;15.60;11.77;;;0.30;99.90;;;;;;4973520;28;20536;-48
2022/04/01 06:27:44;;;;;;;16.10;12.00;;;0.30;99.90;;;;;;4967975;28;20230;-48
2022/04/01 06:30:21;;;;;;;15.30;12.43;;;0.30;99.90;;;;;;4978090;28;20261;-52
2022/04/01 06:32:54;;;;;;;13.73;11.35;;;0.30;99.90;;;;;;4981485;28;20206;-54
2022/04/01 06:35:35;;;;;;;14.60;12.85;;;0.30;99.90;;;;;;4978455;28;20206;-51
2022/04/01 06:38:07;;;;;;;25.90;13.98;;;0.30;99.90;;;;;;4974906;28;20222;-48
2022/04/01 06:40:47;;;;;;;14.77;12.07;;;0.40;99.90;;;;;;4981062;28;20202;-51
2022/04/01 06:43:15;;;;;;;19.15;12.43;;;0.40;99.90;;;;;;4981419;28;20205;-50
2022/04/01 06:45:43;;;;;;;11.60;9.93;;;0.40;99.90;;;;;;4978134;28;20225;-50
2022/04/01 06:48:10;;;;;;;15.98;12.68;;;0.40;99.90;;;;;;4981816;28;20277;-51
2022/04/01 06:50:38;;;;;;;19.17;11.98;;;0.50;99.90;;;;;;4981033;28;20193;-50
2022/04/01 06:53:05;;;;;;;14.07;12.57;;;0.40;99.90;;;;;;4980376;28;20198;-52
2022/04/01 06:55:32;;;;;;;19.15;13.15;;;0.30;99.90;;;;;;4966260;28;20229;-51
2022/04/01 06:58:05;;;;;;;12.60;11.05;;;0.40;99.90;;;;;;4979358;28;20304;-51
2022/04/01 07:00:34;;;;;;;15.65;12.98;;;0.40;99.90;;;;;;4981537;28;20273;-50
2022/04/01 07:03:01;;;;;;;15.40;11.70;;;0.50;99.90;;;;;;4981111;28;20508;-48
2022/04/01 07:05:28;;;;;;;15.07;11.20;;;0.40;99.90;;;;;;4980487;28;20560;-51
2022/04/01 07:08:05;;;;;;;14.23;11.18;;;0.40;99.90;;;;;;4981211;28;20272;-49
2022/04/01 07:10:33;;;;;;;11.13;9.40;;;0.60;99.90;;;;;;4981040;28;20281;-47
2022/04/01 07:13:01;;;;;;;12.63;11.07;;;0.60;99.90;;;;;;4979733;28;20217;-50
2022/04/01 07:15:28;;;;;;;15.80;11.40;;;0.60;99.90;;;;;;4980871;28;20201;-49
2022/04/01 07:17:56;;;;;;;12.13;10.82;;;0.60;99.90;;;;;;4981165;28;20366;-49
2022/04/01 07:20:25;;;;;;;18.85;12.00;;;0.70;99.90;;;;;;4980438;28;20202;-49
2022/04/01 07:22:54;;;;;;;16.90;10.88;;;0.70;99.90;;;;;;4981821;28;20212;-51
2022/04/01 07:25:24;;;;;;;16.70;10.88;;;0.60;99.90;;;;;;4981889;28;20445;-48
2022/04/01 07:27:53;;;;;;;12.30;10.65;;;0.60;99.90;;;;;;4982475;28;20427;-49
2022/04/01 07:30:21;;;;;;;12.73;11.15;;;0.60;99.90;;;;;;4981478;28;20195;-50
2022/04/01 07:32:58;;;;;;;12.10;10.90;;;0.70;99.90;;;;;;4982616;28;20267;-49
2022/04/01 07:35:27;;;;;;;12.40;11.10;;;0.70;99.90;;;;;;4982189;28;20268;-48
2022/04/01 07:37:54;;;;;;;15.48;12.70;;;0.70;99.90;;;;;;4982584;28;20222;-50
2022/04/01 07:40:27;;;;;;;14.32;11.85;;;0.80;99.90;;;;;;4978047;28;20241;-51
2022/04/01 07:42:54;;;;;;;15.00;10.63;;;0.80;99.90;;;;;;4981890;28;20414;-48
2022/04/01 07:45:22;;;;;;;17.00;11.80;;;0.80;99.90;;;;;;4980995;28;20261;-51
2022/04/01 07:47:51;;;;;;;12.02;10.80;;;0.70;99.90;;;;;;4980815;28;20226;-50
2022/04/01 07:50:20;;;;;;;14.98;11.85;;;0.80;99.90;;;;;;4980339;28;20198;-49
2022/04/01 07:52:48;;;;;;;12.55;11.35;;;0.90;99.90;;;;;;4981027;28;20389;-49
2022/04/01 07:55:17;;;;;;;16.55;12.63;;;0.90;99.90;;;;;;4981563;28;20202;-49
2022/04/01 07:57:47;;;;;;;14.02;11.75;;;0.80;99.90;;;;;;4980791;28;20581;-49
2022/04/01 08:00:33;;;;;;;17.13;11.25;;;0.90;99.90;;;;;;4981235;28;20465;-48
2022/04/01 08:03:00;;;;;;;13.55;11.85;;;0.90;99.90;;;;;;4981500;28;20416;-47
2022/04/01 08:05:27;;;;;;;15.68;10.90;;;0.90;99.90;;;;;;4980940;28;20284;-46
2022/04/01 08:07:54;;;;;;;14.32;12.00;;;0.80;99.90;;;;;;4980771;28;20301;-50
2022/04/01 08:10:21;;;;;;;13.82;12.02;;;0.90;99.90;;;;;;4980366;28;20204;-49
2022/04/01 08:12:50;;;;;;;14.82;11.55;;;0.90;99.90;;;;;;4981077;28;20273;-52
2022/04/01 08:15:18;;;;;;;16.15;12.52;;;0.90;99.90;;;;;;4980596;28;20265;-50
2022/04/01 08:17:45;;;;;;;13.82;12.35;;;1.00;99.90;;;;;;4980705;28;20234;-50
2022/04/01 08:20:13;;;;;;;14.63;13.02;;;0.90;99.90;;;;;;4980489;28;20234;-51
2022/04/01 08:22:42;;;;;;;17.65;14.55;;;0.80;99.90;;;;;;4980485;28;20233;-50
2022/04/01 08:25:17;;;;;;;15.77;12.57;;;0.90;99.90;;;;;;4980104;28;20571;-52
2022/04/01 08:27:44;;;;;;;18.40;13.30;;;1.00;99.90;;;;;;4980433;28;20265;-49
2022/04/01 08:30:12;;;;;;;16.67;12.65;;;1.00;99.90;;;;;;4980502;28;20210;-50
2022/04/01 08:32:43;;;;;;;13.73;11.70;;;1.00;99.90;;;;;;4980070;28;20199;-48
2022/04/01 08:35:11;;;;;;;15.52;12.00;;;1.10;99.90;;;;;;4980267;28;20199;-51
2022/04/01 08:37:40;;;;;;;21.23;11.95;;;1.00;99.90;;;;;;4975400;28;20218;-51
2022/04/01 08:40:08;;;;;;;12.98;11.55;;;1.20;99.90;;;;;;4980475;28;20416;-49
2022/04/01 08:42:36;;;;;;;15.70;12.85;;;1.30;99.90;;;;;;4980046;28;20206;-53
2022/04/01 08:45:07;;;;;;;17.27;14.13;;;1.30;99.90;;;;;;4980380;28;20221;-48
2022/04/01 08:47:36;;;;;;;16.73;12.43;;;1.30;99.90;;;;;;4980269;28;20233;-48
2022/04/01 08:50:03;;;;;;;16.60;12.80;;;1.30;99.90;;;;;;4980328;28;20564;-51
2022/04/01 08:52:30;;;;;;;14.05;12.55;;;1.20;99.90;;;;;;4981793;28;20198;-49
2022/04/01 08:55:09;;;;;;;15.65;12.23;;;1.20;99.90;;;;;;4983769;28;20202;-51
2022/04/01 08:57:41;;;;;;;14.50;13.00;;;1.20;99.90;;;;;;4983402;28;20214;-51
2022/04/01 09:00:14;;;;;;;12.38;10.52;;;1.20;99.90;;;;;;4983462;28;20408;-49
2022/04/01 09:02:52;;;;;;;15.48;12.32;;;1.20;99.90;;;;;;4984108;28;20262;-49
2022/04/01 09:05:20;;;;;;;16.38;12.88;;;1.20;99.90;;;;;;4983205;28;20221;-50
2022/04/01 09:07:47;;;;;;;13.98;10.75;;;1.30;99.90;;;;;;4983739;28;20227;-50
2022/04/01 09:10:15;;;;;;;14.63;11.20;;;1.30;99.90;;;;;;4983546;28;20198;-54
2022/04/01 09:12:52;;;;;;;12.13;10.60;;;1.50;99.90;;;;;;4983795;28;20476;-54
2022/04/01 09:15:20;;;;;;;12.18;9.65;;;1.30;99.90;;;;;;4983308;28;20240;-50
2022/04/01 09:17:51;;;;;;;11.15;10.00;;;1.30;99.90;;;;;;4984070;28;20233;-52
2022/04/01 09:20:18;;;;;;;11.77;10.60;;;1.40;99.90;;;;;;4984771;28;20194;-54
2022/04/01 09:22:46;;;;;;;13.40;10.63;;;1.50;99.90;;;;;;4992639;28;20222;-50
2022/04/01 09:25:19;;;;;;;14.93;11.07;;;1.50;99.90;;;;;;4986501;28;20199;-51
2022/04/01 09:27:53;;;;;;;10.55;9.43;;;1.40;99.90;;;;;;4983608;28;20233;-50
2022/04/01 09:30:28;;;;;;;15.20;10.05;;;1.40;99.90;;;;;;4983147;28;20585;-50
2022/04/01 09:33:01;;;;;;;20.73;11.13;;;1.30;99.90;;;;;;4983312;28;20382;-48
2022/04/01 09:35:31;;;;;;;10.20;9.25;;;1.10;99.90;;;;;;4982731;28;20210;-52
2022/04/01 09:38:07;;;;;;;11.23;10.02;;;1.20;99.90;;;;;;4980020;28;20642;-48
2022/04/01 09:40:48;;;;;;;11.25;9.43;;;1.20;99.90;;;;;;4977524;28;20197;-47
2022/04/01 09:43:22;;;;;;;11.05;9.90;;;1.30;99.90;;;;;;4983175;28;20551;-49
2022/04/01 09:45:52;;;;;;;11.23;9.18;;;1.30;99.90;;;;;;4982746;28;20221;-47
2022/04/01 09:48:20;;;;;;;12.75;10.02;;;1.30;99.90;;;;;;4982523;28;20218;-48
2022/04/01 09:50:56;;;;;;;10.80;9.40;;;1.30;99.90;;;;;;4982706;28;20253;-51
2022/04/01 09:53:25;;;;;;;11.05;9.95;;;1.40;99.90;;;;;;4982493;28;20378;-53
2022/04/01 09:55:53;;;;;;;11.63;9.20;;;1.40;99.90;;;;;;4983566;28;20210;-49
2022/04/01 09:58:22;;;;;;;11.82;9.15;;;1.30;99.90;;;;;;4985924;28;20230;-53
2022/04/01 10:00:52;;;;;;;10.15;8.90;;;1.20;99.90;;;;;;4982289;28;20202;-54
2022/04/01 10:03:20;;;;;;;13.60;8.88;;;1.40;99.90;;;;;;4982743;28;20401;-48
2022/04/01 10:05:50;;;;;;;13.32;8.60;;;1.60;99.90;;;;;;4989285;28;20222;-50
2022/04/01 10:08:18;;;;;;;10.52;9.32;;;1.60;99.90;;;;;;4974272;28;20305;-51
2022/04/01 10:10:47;;;;;;;11.15;8.40;;;1.70;99.90;;;;;;4982236;28;20205;-49
2022/04/01 10:13:30;;;;;;;9.93;8.55;;;1.60;99.90;;;;;;4982060;28;20489;-51
2022/04/01 10:15:59;;;;;;;10.55;7.18;;;1.60;99.90;;;;;;4982345;28;20269;-51
2022/04/01 10:18:49;;;;;;;8.00;7.22;;;1.70;99.90;;;;;;4982147;28;20202;-49
2022/04/01 10:21:20;;;;;;;12.85;9.40;;;1.80;99.90;;;;;;4980933;28;20203;-51
2022/04/01 10:24:03;;;;;;;13.48;7.75;;;1.70;99.90;;;;;;4981983;28;20210;-51
2022/04/01 10:26:33;;;;;;;11.35;8.55;;;1.80;99.90;;;;;;4982228;28;20658;-51
2022/04/01 10:29:02;;;;;;;8.55;6.30;;;1.80;99.90;;;;;;4982209;28;20510;-56
2022/04/01 10:31:29;;;;;;;8.77;7.43;;;1.70;99.90;;;;;;4973507;28;20203;-54
2022/04/01 10:34:21;;;;;;;13.35;7.38;;;1.60;99.90;;;;;;4963234;28;20238;-50
2022/04/01 10:37:00;;;;;;;10.20;7.85;;;1.60;99.90;;;;;;4978115;28;20226;-57
2022/04/01 10:39:30;;;;;;;10.63;7.75;;;1.50;99.90;;;;;;4981737;28;20202;-52
2022/04/01 10:42:10;;;;;;;11.80;7.88;;;1.60;99.90;;;;;;4981793;28;20229;-50
2022/04/01 10:44:51;;;;;;;9.43;7.88;;;1.60;99.90;;;;;;4981590;28;20273;-53
2022/04/01 10:47:22;;;;;;;12.75;8.98;;;1.70;99.90;;;;;;4981410;28;20230;-51
2022/04/01 10:52:36;;;;;;;8.50;6.57;;;1.70;99.90;;;;;;4981528;28;20367;-52
2022/04/01 10:55:05;;;;;;;13.30;7.32;;;1.80;99.90;;;;;;4977601;28;20202;-53
2022/04/01 10:57:38;;;;;;;9.27;7.10;;;1.80;99.90;;;;;;4975203;28;20306;-50
2022/04/01 11:00:14;;;;;;;11.20;8.13;;;1.70;99.90;;;;;;4979864;28;20505;-48
2022/04/01 11:02:45;;;;;;;13.40;7.20;;;1.70;99.90;;;;;;4979092;28;20206;-49
2022/04/01 11:05:31;;;;;;;8.60;7.40;;;1.70;99.90;;;;;;4980946;28;20210;-49
2022/04/01 11:08:19;;;;;;;10.90;7.15;;;1.80;99.90;;;;;;4982972;28;20254;-47
2022/04/01 11:11:07;;;;;;;7.40;6.22;;;1.80;99.90;;;;;;4984956;28;20198;-48
2022/04/01 11:13:37;;;;;;;9.38;7.07;;;1.70;99.90;;;;;;4984905;28;20221;-52
2022/04/01 11:16:15;;;;;;;11.57;7.10;;;1.70;99.90;;;;;;4979309;28;20225;-52
2022/04/01 11:19:15;;;;;;;8.00;6.57;;;1.70;99.90;;;;;;4980989;28;20197;-51
2022/04/01 11:21:44;;;;;;;11.20;8.18;;;1.70;99.90;;;;;;4976829;28;20517;-48
2022/04/01 11:24:33;;;;;;;9.45;6.82;;;1.80;99.90;;;;;;4980512;28;20206;-50
2022/04/01 11:27:24;;;;;;;9.15;8.23;;;1.80;99.90;;;;;;4980393;28;20246;-49
2022/04/01 11:30:15;;;;;;;14.20;6.93;;;1.90;99.90;;;;;;4980803;28;20222;-48
2022/04/01 11:32:45;;;;;;;10.18;7.30;;;1.90;99.90;;;;;;4981107;28;20194;-51
2022/04/01 11:35:15;;;;;;;8.02;6.63;;;2.00;99.90;;;;;;4980925;28;20204;-50
2022/04/01 11:37:45;;;;;;;10.57;6.82;;;2.00;99.90;;;;;;4981365;28;20285;-49
2022/04/01 11:40:17;;;;;;;8.88;7.50;;;1.90;99.90;;;;;;4980678;28;20209;-51
2022/04/01 11:42:59;;;;;;;8.07;6.88;;;2.00;99.90;;;;;;4980894;28;20514;-49
2022/04/01 11:45:31;;;;;;;8.73;7.18;;;1.90;99.90;;;;;;4980563;28;20204;-48
2022/04/01 11:48:26;;;;;;;12.43;7.90;;;2.10;99.90;;;;;;4980797;28;20234;-48
2022/04/01 11:50:56;;;;;;;9.07;6.97;;;2.00;99.90;;;;;;4980335;28;20221;-47
2022/04/01 11:53:32;;;;;;;9.63;6.50;;;2.10;99.90;;;;;;4981024;28;20347;-53
2022/04/01 11:56:00;;;;;;;10.52;6.60;;;2.10;99.90;;;;;;4980980;28;20260;-51
2022/04/01 11:58:57;;;;;;;7.20;5.85;;;2.00;99.90;;;;;;4980792;28;20222;-49
2022/04/01 12:01:57;;;;;;;10.57;7.72;;;2.00;99.90;;;;;;4973836;28;20381;-52
2022/04/01 12:04:32;;;;;;;10.80;7.85;;;2.00;99.90;;;;;;4969424;28;20398;-47
2022/04/01 12:10:04;;;;;;;9.90;6.07;;;2.10;99.90;;;;;;4982152;28;20202;-50
2022/04/01 12:12:33;;;;;;;8.98;6.53;;;2.30;99.90;;;;;;4986118;28;20408;-50
2022/04/01 12:15:00;;;;;;;8.30;6.03;;;2.30;99.90;;;;;;4984030;28;20207;-51
2022/04/01 12:17:28;;;;;;;11.48;6.80;;;2.40;99.90;;;;;;4980731;28;20226;-49
2022/04/01 12:20:13;;;;;;;10.82;7.45;;;2.40;99.90;;;;;;4980776;28;20207;-52
2022/04/01 12:22:57;;;;;;;10.45;6.28;;;2.40;99.90;;;;;;4980207;28;20238;-49
2022/04/01 12:25:24;;;;;;;13.45;7.60;;;2.40;99.90;;;;;;4980163;28;20286;-52
2022/04/01 12:28:07;;;;;;;13.73;8.00;;;2.40;99.90;;;;;;4982827;28;20238;-49
2022/04/01 12:30:38;;;;;;;8.85;5.85;;;2.30;99.90;;;;;;4983892;28;20203;-51
2022/04/01 12:33:11;;;;;;;13.30;6.65;;;2.30;99.90;;;;;;4984415;28;20389;-49
2022/04/01 12:36:08;;;;;;;8.80;7.90;;;2.20;99.90;;;;;;4983814;28;20198;-49
2022/04/01 12:38:42;;;;;;;8.55;6.75;;;2.30;99.90;;;;;;4982795;28;20207;-49
2022/04/01 12:41:19;;;;;;;9.82;6.57;;;2.20;99.90;;;;;;4984542;28;20221;-52
2022/04/01 12:43:49;;;;;;;12.25;7.10;;;2.20;99.90;;;;;;4984104;28;20198;-51
2022/04/01 12:46:17;;;;;;;10.55;7.50;;;2.30;99.90;;;;;;4983998;28;20221;-49
2022/04/01 12:48:57;;;;;;;12.82;8.90;;;2.50;99.90;;;;;;4983721;28;20225;-53
2022/04/01 12:51:33;;;;;;;8.88;7.25;;;2.40;99.90;;;;;;4983730;28;20198;-50
2022/04/01 12:54:09;;;;;;;14.07;8.77;;;2.30;99.90;;;;;;4983946;28;20377;-54
2022/04/01 12:56:42;;;;;;;20.33;8.05;;;2.30;99.90;;;;;;4983981;28;20223;-53
2022/04/01 12:59:16;;;;;;;10.20;8.32;;;2.40;99.90;;;;;;4983888;28;20215;-51
2022/04/01 13:01:46;;;;;;;16.75;9.25;;;2.30;99.90;;;;;;4983813;28;20466;-49
2022/04/01 13:04:20;;;;;;;16.92;11.45;;;2.50;99.90;;;;;;4984071;28;20214;-48
2022/04/01 13:07:15;;;;;;;15.70;13.43;;;2.60;99.90;;;;;;4983948;28;20238;-49
2022/04/01 13:09:44;;;;;;;15.00;13.45;;;2.60;99.90;;;;;;4985654;28;20203;-47
2022/04/01 13:12:13;;;;;;;16.63;13.68;;;2.70;99.90;;;;;;4985741;28;20234;-49
2022/04/01 13:14:40;;;;;;;18.10;13.23;;;2.90;99.90;;;;;;4983953;28;20199;-49
2022/04/01 13:17:15;;;;;;;17.48;13.93;;;2.90;99.90;;;;;;4993355;28;20233;-48
2022/04/01 13:19:45;;;;;;;21.85;14.00;;;2.90;99.90;;;;;;4978920;28;20204;-49
2022/04/01 13:22:13;;;;;;;16.05;13.27;;;3.20;99.90;;;;;;4971995;28;20514;-50
2022/04/01 13:24:50;;;;;;;16.02;13.73;;;3.40;99.90;;;;;;4966153;28;20232;-53